sensor_id;sensor_type;location;lat;lon;timestamp;P1;durP1;ratioP1;P2;durP2;ratioP2
17917;SDS011;9084;50.956;3.106;2023-05-25T00:02:21;7.50;;;4.20;;
17917;SDS011;9084;50.956;3.106;2023-05-25T00:04:50;9.30;;;3.95;;
17917;SDS011;9084;50.956;3.106;2023-05-25T00:07:16;13.00;;;4.32;;
17917;SDS011;9084;50.956;3.106;2023-05-25T00:09:42;7.45;;;4.05;;
17917;SDS011;9084;50.956;3.106;2023-05-25T00:12:09;9.38;;;4.55;;
17917;SDS011;9084;50.956;3.106;2023-05-25T00:14:35;11.05;;;4.50;;
17917;SDS011;9084;50.956;3.106;2023-05-25T00:17:01;8.02;;;3.70;;
17917;SDS011;9084;50.956;3.106;2023-05-25T00:19:28;10.45;;;4.55;;
17917;SDS011;9084;50.956;3.106;2023-05-25T00:21:57;9.65;;;4.63;;
17917;SDS011;9084;50.956;3.106;2023-05-25T00:24:26;8.23;;;4.90;;
17917;SDS011;9084;50.956;3.106;2023-05-25T00:26:55;12.13;;;5.15;;
17917;SDS011;9084;50.956;3.106;2023-05-25T00:29:24;11.40;;;5.22;;
17917;SDS011;9084;50.956;3.106;2023-05-25T00:31:52;9.85;;;4.47;;
17917;SDS011;9084;50.956;3.106;2023-05-25T00:34:18;12.23;;;5.03;;
17917;SDS011;9084;50.956;3.106;2023-05-25T00:36:43;9.68;;;4.80;;
17917;SDS011;9084;50.956;3.106;2023-05-25T00:39:18;8.63;;;4.97;;
17917;SDS011;9084;50.956;3.106;2023-05-25T00:41:44;11.07;;;5.47;;
17917;SDS011;9084;50.956;3.106;2023-05-25T00:44:13;10.13;;;5.50;;
17917;SDS011;9084;50.956;3.106;2023-05-25T00:46:47;10.60;;;5.20;;
17917;SDS011;9084;50.956;3.106;2023-05-25T00:49:14;8.30;;;4.90;;
17917;SDS011;9084;50.956;3.106;2023-05-25T00:51:42;8.30;;;5.03;;
17917;SDS011;9084;50.956;3.106;2023-05-25T00:54:12;10.27;;;5.45;;
17917;SDS011;9084;50.956;3.106;2023-05-25T00:56:51;7.28;;;4.95;;
17917;SDS011;9084;50.956;3.106;2023-05-25T01:02:09;8.85;;;5.05;;
17917;SDS011;9084;50.956;3.106;2023-05-25T01:04:39;11.73;;;5.50;;
17917;SDS011;9084;50.956;3.106;2023-05-25T01:07:09;14.40;;;5.57;;
17917;SDS011;9084;50.956;3.106;2023-05-25T01:09:40;11.30;;;5.72;;
17917;SDS011;9084;50.956;3.106;2023-05-25T01:12:08;8.73;;;5.25;;
17917;SDS011;9084;50.956;3.106;2023-05-25T01:14:37;9.77;;;5.53;;
17917;SDS011;9084;50.956;3.106;2023-05-25T01:17:06;12.43;;;6.45;;
17917;SDS011;9084;50.956;3.106;2023-05-25T01:19:34;10.85;;;5.43;;
17917;SDS011;9084;50.956;3.106;2023-05-25T01:24:55;11.35;;;6.40;;
17917;SDS011;9084;50.956;3.106;2023-05-25T01:27:37;8.45;;;5.60;;
17917;SDS011;9084;50.956;3.106;2023-05-25T01:30:21;11.05;;;5.97;;
17917;SDS011;9084;50.956;3.106;2023-05-25T01:32:52;8.63;;;5.20;;
17917;SDS011;9084;50.956;3.106;2023-05-25T01:35:19;10.48;;;6.22;;
17917;SDS011;9084;50.956;3.106;2023-05-25T01:37:46;9.77;;;5.82;;
17917;SDS011;9084;50.956;3.106;2023-05-25T01:40:13;8.40;;;5.20;;
17917;SDS011;9084;50.956;3.106;2023-05-25T01:42:40;10.77;;;6.20;;
17917;SDS011;9084;50.956;3.106;2023-05-25T01:45:08;10.60;;;5.70;;
17917;SDS011;9084;50.956;3.106;2023-05-25T01:51:06;9.13;;;5.18;;
17917;SDS011;9084;50.956;3.106;2023-05-25T01:53:44;10.35;;;6.10;;
17917;SDS011;9084;50.956;3.106;2023-05-25T01:56:16;11.98;;;6.22;;
17917;SDS011;9084;50.956;3.106;2023-05-25T01:58:45;10.02;;;6.20;;
17917;SDS011;9084;50.956;3.106;2023-05-25T02:01:13;10.23;;;6.53;;
17917;SDS011;9084;50.956;3.106;2023-05-25T02:03:42;9.75;;;6.50;;
17917;SDS011;9084;50.956;3.106;2023-05-25T02:06:10;13.30;;;6.88;;
17917;SDS011;9084;50.956;3.106;2023-05-25T02:08:36;12.15;;;6.28;;
17917;SDS011;9084;50.956;3.106;2023-05-25T02:11:02;11.57;;;5.55;;
17917;SDS011;9084;50.956;3.106;2023-05-25T02:13:27;9.85;;;6.47;;
17917;SDS011;9084;50.956;3.106;2023-05-25T02:15:53;10.75;;;6.05;;
17917;SDS011;9084;50.956;3.106;2023-05-25T02:18:19;10.57;;;5.95;;
17917;SDS011;9084;50.956;3.106;2023-05-25T02:20:47;9.15;;;6.47;;
17917;SDS011;9084;50.956;3.106;2023-05-25T02:23:15;9.68;;;6.50;;
17917;SDS011;9084;50.956;3.106;2023-05-25T02:25:42;9.65;;;5.85;;
17917;SDS011;9084;50.956;3.106;2023-05-25T02:28:11;8.50;;;6.00;;
17917;SDS011;9084;50.956;3.106;2023-05-25T02:30:36;11.38;;;5.05;;
17917;SDS011;9084;50.956;3.106;2023-05-25T02:33:02;12.35;;;6.45;;
17917;SDS011;9084;50.956;3.106;2023-05-25T02:35:30;12.55;;;6.65;;
17917;SDS011;9084;50.956;3.106;2023-05-25T02:37:56;8.80;;;6.47;;
17917;SDS011;9084;50.956;3.106;2023-05-25T02:40:24;12.43;;;6.47;;
17917;SDS011;9084;50.956;3.106;2023-05-25T02:42:52;9.18;;;6.63;;
17917;SDS011;9084;50.956;3.106;2023-05-25T02:45:20;11.55;;;6.78;;
17917;SDS011;9084;50.956;3.106;2023-05-25T02:47:45;12.27;;;6.38;;
17917;SDS011;9084;50.956;3.106;2023-05-25T02:50:11;8.07;;;6.50;;
17917;SDS011;9084;50.956;3.106;2023-05-25T02:52:37;11.35;;;6.93;;
17917;SDS011;9084;50.956;3.106;2023-05-25T02:55:04;10.93;;;6.30;;
17917;SDS011;9084;50.956;3.106;2023-05-25T02:57:30;9.15;;;6.07;;
17917;SDS011;9084;50.956;3.106;2023-05-25T02:59:55;10.27;;;5.80;;
17917;SDS011;9084;50.956;3.106;2023-05-25T03:02:23;10.20;;;6.78;;
17917;SDS011;9084;50.956;3.106;2023-05-25T03:04:49;11.32;;;6.05;;
17917;SDS011;9084;50.956;3.106;2023-05-25T03:07:18;10.52;;;7.18;;
17917;SDS011;9084;50.956;3.106;2023-05-25T03:09:45;7.93;;;6.40;;
17917;SDS011;9084;50.956;3.106;2023-05-25T03:12:18;12.93;;;6.80;;
17917;SDS011;9084;50.956;3.106;2023-05-25T03:14:46;9.23;;;6.65;;
17917;SDS011;9084;50.956;3.106;2023-05-25T03:17:12;7.63;;;5.90;;
17917;SDS011;9084;50.956;3.106;2023-05-25T03:19:37;8.43;;;6.20;;
17917;SDS011;9084;50.956;3.106;2023-05-25T03:22:03;10.75;;;7.03;;
17917;SDS011;9084;50.956;3.106;2023-05-25T03:24:29;9.25;;;6.82;;
17917;SDS011;9084;50.956;3.106;2023-05-25T03:26:54;9.18;;;6.78;;
17917;SDS011;9084;50.956;3.106;2023-05-25T03:29:20;10.52;;;6.88;;
17917;SDS011;9084;50.956;3.106;2023-05-25T03:31:46;11.63;;;6.63;;
17917;SDS011;9084;50.956;3.106;2023-05-25T03:34:11;9.57;;;6.88;;
17917;SDS011;9084;50.956;3.106;2023-05-25T03:36:37;9.80;;;6.38;;
17917;SDS011;9084;50.956;3.106;2023-05-25T03:39:10;14.98;;;7.65;;
17917;SDS011;9084;50.956;3.106;2023-05-25T03:41:36;9.40;;;6.50;;
17917;SDS011;9084;50.956;3.106;2023-05-25T03:44:01;11.25;;;7.00;;
17917;SDS011;9084;50.956;3.106;2023-05-25T03:46:27;11.75;;;7.20;;
17917;SDS011;9084;50.956;3.106;2023-05-25T03:48:53;11.02;;;7.05;;
17917;SDS011;9084;50.956;3.106;2023-05-25T03:51:26;10.90;;;6.60;;
17917;SDS011;9084;50.956;3.106;2023-05-25T03:53:53;9.98;;;6.68;;
17917;SDS011;9084;50.956;3.106;2023-05-25T03:56:21;13.15;;;6.85;;
17917;SDS011;9084;50.956;3.106;2023-05-25T03:58:50;11.90;;;7.00;;
17917;SDS011;9084;50.956;3.106;2023-05-25T04:01:16;13.65;;;7.15;;
17917;SDS011;9084;50.956;3.106;2023-05-25T04:03:47;8.15;;;5.97;;
17917;SDS011;9084;50.956;3.106;2023-05-25T04:06:17;10.75;;;7.03;;
17917;SDS011;9084;50.956;3.106;2023-05-25T04:08:45;13.63;;;6.60;;
17917;SDS011;9084;50.956;3.106;2023-05-25T04:11:11;8.52;;;6.28;;
17917;SDS011;9084;50.956;3.106;2023-05-25T04:13:42;8.35;;;6.00;;
17917;SDS011;9084;50.956;3.106;2023-05-25T04:16:10;9.52;;;6.50;;
17917;SDS011;9084;50.956;3.106;2023-05-25T04:18:38;9.15;;;5.93;;
17917;SDS011;9084;50.956;3.106;2023-05-25T04:21:04;10.95;;;6.63;;
17917;SDS011;9084;50.956;3.106;2023-05-25T04:23:32;9.98;;;6.35;;
17917;SDS011;9084;50.956;3.106;2023-05-25T04:25:58;7.75;;;6.07;;
17917;SDS011;9084;50.956;3.106;2023-05-25T04:28:29;10.65;;;6.40;;
17917;SDS011;9084;50.956;3.106;2023-05-25T04:30:58;13.57;;;6.03;;
17917;SDS011;9084;50.956;3.106;2023-05-25T04:33:24;9.02;;;6.80;;
17917;SDS011;9084;50.956;3.106;2023-05-25T04:35:53;10.93;;;6.50;;
17917;SDS011;9084;50.956;3.106;2023-05-25T04:38:25;7.85;;;5.25;;
17917;SDS011;9084;50.956;3.106;2023-05-25T04:40:57;10.32;;;6.53;;
17917;SDS011;9084;50.956;3.106;2023-05-25T04:43:30;11.73;;;5.97;;
17917;SDS011;9084;50.956;3.106;2023-05-25T04:45:56;10.48;;;6.57;;
17917;SDS011;9084;50.956;3.106;2023-05-25T04:48:23;13.80;;;7.03;;
17917;SDS011;9084;50.956;3.106;2023-05-25T04:50:52;9.13;;;6.30;;
17917;SDS011;9084;50.956;3.106;2023-05-25T04:53:19;10.70;;;6.50;;
17917;SDS011;9084;50.956;3.106;2023-05-25T04:55:48;7.70;;;6.03;;
17917;SDS011;9084;50.956;3.106;2023-05-25T04:58:13;7.10;;;5.65;;
17917;SDS011;9084;50.956;3.106;2023-05-25T05:00:42;9.65;;;5.65;;
17917;SDS011;9084;50.956;3.106;2023-05-25T05:03:10;11.23;;;5.80;;
17917;SDS011;9084;50.956;3.106;2023-05-25T05:05:35;8.95;;;5.78;;
17917;SDS011;9084;50.956;3.106;2023-05-25T05:08:03;8.93;;;6.15;;
17917;SDS011;9084;50.956;3.106;2023-05-25T05:10:34;12.45;;;6.22;;
17917;SDS011;9084;50.956;3.106;2023-05-25T05:13:02;13.20;;;7.53;;
17917;SDS011;9084;50.956;3.106;2023-05-25T05:15:27;11.40;;;6.38;;
17917;SDS011;9084;50.956;3.106;2023-05-25T05:17:55;15.27;;;5.55;;
17917;SDS011;9084;50.956;3.106;2023-05-25T05:20:23;9.27;;;5.60;;
17917;SDS011;9084;50.956;3.106;2023-05-25T05:22:51;10.32;;;6.13;;
17917;SDS011;9084;50.956;3.106;2023-05-25T05:25:19;13.65;;;6.47;;
17917;SDS011;9084;50.956;3.106;2023-05-25T05:27:45;22.60;;;7.70;;
17917;SDS011;9084;50.956;3.106;2023-05-25T05:30:10;14.63;;;6.15;;
17917;SDS011;9084;50.956;3.106;2023-05-25T05:32:36;13.77;;;6.28;;
17917;SDS011;9084;50.956;3.106;2023-05-25T05:35:07;9.90;;;6.03;;
17917;SDS011;9084;50.956;3.106;2023-05-25T05:37:33;11.20;;;6.07;;
17917;SDS011;9084;50.956;3.106;2023-05-25T05:39:58;13.85;;;6.13;;
17917;SDS011;9084;50.956;3.106;2023-05-25T05:42:26;10.38;;;5.63;;
17917;SDS011;9084;50.956;3.106;2023-05-25T05:44:54;9.00;;;6.18;;
17917;SDS011;9084;50.956;3.106;2023-05-25T05:47:19;11.90;;;5.80;;
17917;SDS011;9084;50.956;3.106;2023-05-25T05:49:46;11.57;;;6.18;;
17917;SDS011;9084;50.956;3.106;2023-05-25T05:52:11;11.52;;;5.97;;
17917;SDS011;9084;50.956;3.106;2023-05-25T05:54:37;12.00;;;6.25;;
17917;SDS011;9084;50.956;3.106;2023-05-25T05:57:05;13.63;;;6.55;;
17917;SDS011;9084;50.956;3.106;2023-05-25T05:59:33;9.93;;;6.25;;
17917;SDS011;9084;50.956;3.106;2023-05-25T06:02:01;8.82;;;5.80;;
17917;SDS011;9084;50.956;3.106;2023-05-25T06:04:29;10.23;;;6.50;;
17917;SDS011;9084;50.956;3.106;2023-05-25T06:06:55;10.30;;;6.50;;
17917;SDS011;9084;50.956;3.106;2023-05-25T06:09:20;12.77;;;6.80;;
17917;SDS011;9084;50.956;3.106;2023-05-25T06:11:46;9.60;;;5.65;;
17917;SDS011;9084;50.956;3.106;2023-05-25T06:14:14;10.60;;;7.20;;
17917;SDS011;9084;50.956;3.106;2023-05-25T06:16:40;9.75;;;6.38;;
17917;SDS011;9084;50.956;3.106;2023-05-25T06:19:07;9.48;;;7.07;;
17917;SDS011;9084;50.956;3.106;2023-05-25T06:21:33;9.10;;;6.88;;
17917;SDS011;9084;50.956;3.106;2023-05-25T06:23:58;9.38;;;6.90;;
17917;SDS011;9084;50.956;3.106;2023-05-25T06:26:24;10.25;;;6.80;;
17917;SDS011;9084;50.956;3.106;2023-05-25T06:28:51;10.80;;;6.90;;
17917;SDS011;9084;50.956;3.106;2023-05-25T06:31:16;12.70;;;6.53;;
17917;SDS011;9084;50.956;3.106;2023-05-25T06:33:43;9.40;;;7.43;;
17917;SDS011;9084;50.956;3.106;2023-05-25T06:36:08;12.50;;;7.57;;
17917;SDS011;9084;50.956;3.106;2023-05-25T06:38:35;14.90;;;7.40;;
17917;SDS011;9084;50.956;3.106;2023-05-25T06:41:00;10.98;;;7.40;;
17917;SDS011;9084;50.956;3.106;2023-05-25T06:43:28;11.13;;;7.05;;
17917;SDS011;9084;50.956;3.106;2023-05-25T06:45:56;10.40;;;6.57;;
17917;SDS011;9084;50.956;3.106;2023-05-25T06:48:22;11.25;;;5.45;;
17917;SDS011;9084;50.956;3.106;2023-05-25T06:50:49;7.30;;;5.45;;
17917;SDS011;9084;50.956;3.106;2023-05-25T06:53:17;10.10;;;5.15;;
17917;SDS011;9084;50.956;3.106;2023-05-25T06:55:45;7.75;;;4.60;;
17917;SDS011;9084;50.956;3.106;2023-05-25T06:58:11;10.02;;;5.43;;
17917;SDS011;9084;50.956;3.106;2023-05-25T07:00:37;8.35;;;4.90;;
17917;SDS011;9084;50.956;3.106;2023-05-25T07:03:05;10.35;;;5.18;;
17917;SDS011;9084;50.956;3.106;2023-05-25T07:05:33;8.75;;;4.57;;
17917;SDS011;9084;50.956;3.106;2023-05-25T07:07:58;8.13;;;5.00;;
17917;SDS011;9084;50.956;3.106;2023-05-25T07:10:24;8.13;;;4.53;;
17917;SDS011;9084;50.956;3.106;2023-05-25T07:12:50;7.38;;;4.05;;
17917;SDS011;9084;50.956;3.106;2023-05-25T07:15:17;9.75;;;5.28;;
17917;SDS011;9084;50.956;3.106;2023-05-25T07:17:45;6.00;;;5.00;;
17917;SDS011;9084;50.956;3.106;2023-05-25T07:20:11;6.35;;;4.80;;
17917;SDS011;9084;50.956;3.106;2023-05-25T07:22:39;14.07;;;5.00;;
17917;SDS011;9084;50.956;3.106;2023-05-25T07:25:05;8.50;;;5.13;;
17917;SDS011;9084;50.956;3.106;2023-05-25T07:27:31;10.27;;;4.70;;
17917;SDS011;9084;50.956;3.106;2023-05-25T07:29:59;8.75;;;5.10;;
17917;SDS011;9084;50.956;3.106;2023-05-25T07:32:25;10.45;;;5.50;;
17917;SDS011;9084;50.956;3.106;2023-05-25T07:34:52;8.98;;;4.60;;
17917;SDS011;9084;50.956;3.106;2023-05-25T07:37:20;7.32;;;4.20;;
17917;SDS011;9084;50.956;3.106;2023-05-25T07:39:46;7.18;;;4.45;;
17917;SDS011;9084;50.956;3.106;2023-05-25T07:42:12;5.63;;;4.70;;
17917;SDS011;9084;50.956;3.106;2023-05-25T07:44:37;6.82;;;4.20;;
17917;SDS011;9084;50.956;3.106;2023-05-25T07:47:03;5.43;;;4.30;;
17917;SDS011;9084;50.956;3.106;2023-05-25T07:49:30;7.30;;;4.45;;
17917;SDS011;9084;50.956;3.106;2023-05-25T07:51:56;6.35;;;3.28;;
17917;SDS011;9084;50.956;3.106;2023-05-25T07:54:24;8.75;;;3.97;;
17917;SDS011;9084;50.956;3.106;2023-05-25T07:56:50;6.63;;;4.40;;
17917;SDS011;9084;50.956;3.106;2023-05-25T07:59:18;5.97;;;3.53;;
17917;SDS011;9084;50.956;3.106;2023-05-25T08:01:43;9.88;;;4.43;;
17917;SDS011;9084;50.956;3.106;2023-05-25T08:04:09;8.02;;;4.20;;
17917;SDS011;9084;50.956;3.106;2023-05-25T08:06:35;7.88;;;4.68;;
17917;SDS011;9084;50.956;3.106;2023-05-25T08:09:01;6.18;;;3.90;;
17917;SDS011;9084;50.956;3.106;2023-05-25T08:11:28;4.88;;;4.25;;
17917;SDS011;9084;50.956;3.106;2023-05-25T08:13:55;7.28;;;4.13;;
17917;SDS011;9084;50.956;3.106;2023-05-25T08:16:20;5.57;;;3.83;;
17917;SDS011;9084;50.956;3.106;2023-05-25T08:18:46;7.85;;;4.00;;
17917;SDS011;9084;50.956;3.106;2023-05-25T08:21:12;7.05;;;4.35;;
17917;SDS011;9084;50.956;3.106;2023-05-25T08:23:39;7.00;;;3.28;;
17917;SDS011;9084;50.956;3.106;2023-05-25T08:26:09;7.53;;;3.50;;
17917;SDS011;9084;50.956;3.106;2023-05-25T08:28:35;6.97;;;4.00;;
17917;SDS011;9084;50.956;3.106;2023-05-25T08:31:04;7.93;;;3.58;;
17917;SDS011;9084;50.956;3.106;2023-05-25T08:33:30;5.30;;;3.10;;
17917;SDS011;9084;50.956;3.106;2023-05-25T08:35:55;9.88;;;3.72;;
17917;SDS011;9084;50.956;3.106;2023-05-25T08:38:23;5.80;;;3.40;;
17917;SDS011;9084;50.956;3.106;2023-05-25T08:41:11;4.50;;;2.90;;
17917;SDS011;9084;50.956;3.106;2023-05-25T08:43:40;6.35;;;3.15;;
17917;SDS011;9084;50.956;3.106;2023-05-25T08:46:06;4.35;;;3.15;;
17917;SDS011;9084;50.956;3.106;2023-05-25T08:48:33;4.70;;;3.50;;
17917;SDS011;9084;50.956;3.106;2023-05-25T08:51:08;7.07;;;3.25;;
17917;SDS011;9084;50.956;3.106;2023-05-25T08:53:35;5.82;;;3.05;;
17917;SDS011;9084;50.956;3.106;2023-05-25T08:56:09;4.20;;;2.95;;
17917;SDS011;9084;50.956;3.106;2023-05-25T08:59:11;3.33;;;3.03;;
17917;SDS011;9084;50.956;3.106;2023-05-25T09:01:40;6.45;;;3.15;;
17917;SDS011;9084;50.956;3.106;2023-05-25T09:04:10;7.10;;;3.03;;
17917;SDS011;9084;50.956;3.106;2023-05-25T09:06:41;3.63;;;3.00;;
17917;SDS011;9084;50.956;3.106;2023-05-25T09:09:12;4.88;;;2.90;;
17917;SDS011;9084;50.956;3.106;2023-05-25T09:11:41;3.63;;;2.78;;
17917;SDS011;9084;50.956;3.106;2023-05-25T09:14:08;5.82;;;2.85;;
17917;SDS011;9084;50.956;3.106;2023-05-25T09:16:38;4.32;;;3.00;;
17917;SDS011;9084;50.956;3.106;2023-05-25T09:19:07;5.43;;;3.20;;
17917;SDS011;9084;50.956;3.106;2023-05-25T09:21:33;5.25;;;2.97;;
17917;SDS011;9084;50.956;3.106;2023-05-25T09:23:59;6.75;;;3.63;;
17917;SDS011;9084;50.956;3.106;2023-05-25T09:26:29;5.18;;;3.10;;
17917;SDS011;9084;50.956;3.106;2023-05-25T09:28:55;4.40;;;3.20;;
17917;SDS011;9084;50.956;3.106;2023-05-25T09:31:23;3.53;;;2.63;;
17917;SDS011;9084;50.956;3.106;2023-05-25T09:33:49;5.43;;;3.13;;
17917;SDS011;9084;50.956;3.106;2023-05-25T09:36:19;5.82;;;3.25;;
17917;SDS011;9084;50.956;3.106;2023-05-25T09:38:47;4.75;;;2.80;;
17917;SDS011;9084;50.956;3.106;2023-05-25T09:41:15;3.67;;;2.47;;
17917;SDS011;9084;50.956;3.106;2023-05-25T09:43:43;4.72;;;2.70;;
17917;SDS011;9084;50.956;3.106;2023-05-25T09:46:13;3.35;;;2.60;;
17917;SDS011;9084;50.956;3.106;2023-05-25T09:48:43;4.75;;;3.15;;
17917;SDS011;9084;50.956;3.106;2023-05-25T09:51:13;4.95;;;2.42;;
17917;SDS011;9084;50.956;3.106;2023-05-25T09:53:38;4.05;;;2.65;;
17917;SDS011;9084;50.956;3.106;2023-05-25T09:56:06;5.72;;;3.40;;
17917;SDS011;9084;50.956;3.106;2023-05-25T09:58:32;3.00;;;2.70;;
17917;SDS011;9084;50.956;3.106;2023-05-25T10:00:58;5.10;;;2.47;;
17917;SDS011;9084;50.956;3.106;2023-05-25T10:03:26;3.80;;;2.28;;
17917;SDS011;9084;50.956;3.106;2023-05-25T10:05:53;7.18;;;3.00;;
17917;SDS011;9084;50.956;3.106;2023-05-25T10:08:21;3.00;;;2.70;;
17917;SDS011;9084;50.956;3.106;2023-05-25T10:10:49;3.95;;;2.65;;
17917;SDS011;9084;50.956;3.106;2023-05-25T10:13:20;4.10;;;2.65;;
17917;SDS011;9084;50.956;3.106;2023-05-25T10:15:51;5.38;;;2.45;;
17917;SDS011;9084;50.956;3.106;2023-05-25T10:18:18;3.38;;;1.90;;
17917;SDS011;9084;50.956;3.106;2023-05-25T10:21:02;3.95;;;2.58;;
17917;SDS011;9084;50.956;3.106;2023-05-25T10:23:30;3.15;;;2.45;;
17917;SDS011;9084;50.956;3.106;2023-05-25T10:26:02;2.60;;;2.03;;
17917;SDS011;9084;50.956;3.106;2023-05-25T10:28:33;2.78;;;2.47;;
17917;SDS011;9084;50.956;3.106;2023-05-25T10:31:00;3.72;;;2.38;;
17917;SDS011;9084;50.956;3.106;2023-05-25T10:33:27;2.83;;;2.10;;
17917;SDS011;9084;50.956;3.106;2023-05-25T10:35:54;2.88;;;2.50;;
17917;SDS011;9084;50.956;3.106;2023-05-25T10:38:21;2.70;;;2.47;;
17917;SDS011;9084;50.956;3.106;2023-05-25T10:40:53;3.65;;;2.30;;
17917;SDS011;9084;50.956;3.106;2023-05-25T10:43:20;2.80;;;2.45;;
17917;SDS011;9084;50.956;3.106;2023-05-25T10:45:46;3.78;;;2.05;;
17917;SDS011;9084;50.956;3.106;2023-05-25T10:48:12;3.45;;;2.20;;
17917;SDS011;9084;50.956;3.106;2023-05-25T10:50:39;3.03;;;2.30;;
17917;SDS011;9084;50.956;3.106;2023-05-25T10:53:13;2.80;;;2.20;;
17917;SDS011;9084;50.956;3.106;2023-05-25T10:58:22;2.85;;;2.20;;
17917;SDS011;9084;50.956;3.106;2023-05-25T11:01:06;3.95;;;1.92;;
17917;SDS011;9084;50.956;3.106;2023-05-25T11:09:23;4.18;;;2.72;;
17917;SDS011;9084;50.956;3.106;2023-05-25T11:19:47;2.95;;;2.55;;
17917;SDS011;9084;50.956;3.106;2023-05-25T11:24:51;4.05;;;2.30;;
17917;SDS011;9084;50.956;3.106;2023-05-25T11:27:23;3.35;;;2.58;;
17917;SDS011;9084;50.956;3.106;2023-05-25T11:30:11;3.13;;;2.83;;
17917;SDS011;9084;50.956;3.106;2023-05-25T11:32:47;3.15;;;2.35;;
17917;SDS011;9084;50.956;3.106;2023-05-25T11:35:15;2.92;;;2.60;;
17917;SDS011;9084;50.956;3.106;2023-05-25T11:37:48;3.63;;;2.80;;
17917;SDS011;9084;50.956;3.106;2023-05-25T11:40:20;3.85;;;3.00;;
17917;SDS011;9084;50.956;3.106;2023-05-25T11:42:49;2.90;;;2.70;;
17917;SDS011;9084;50.956;3.106;2023-05-25T11:45:20;4.82;;;2.83;;
17917;SDS011;9084;50.956;3.106;2023-05-25T11:47:47;4.70;;;2.92;;
17917;SDS011;9084;50.956;3.106;2023-05-25T11:50:15;3.35;;;2.55;;
17917;SDS011;9084;50.956;3.106;2023-05-25T11:52:43;2.75;;;2.40;;
17917;SDS011;9084;50.956;3.106;2023-05-25T11:55:11;3.60;;;3.10;;
17917;SDS011;9084;50.956;3.106;2023-05-25T11:57:40;3.60;;;3.00;;
17917;SDS011;9084;50.956;3.106;2023-05-25T12:00:11;4.07;;;2.80;;
17917;SDS011;9084;50.956;3.106;2023-05-25T12:02:37;4.47;;;3.05;;
17917;SDS011;9084;50.956;3.106;2023-05-25T12:05:04;3.25;;;2.65;;
17917;SDS011;9084;50.956;3.106;2023-05-25T12:07:33;5.25;;;3.10;;
17917;SDS011;9084;50.956;3.106;2023-05-25T12:12:39;4.97;;;2.30;;
17917;SDS011;9084;50.956;3.106;2023-05-25T12:15:13;5.10;;;2.90;;
17917;SDS011;9084;50.956;3.106;2023-05-25T12:17:40;4.65;;;2.45;;
17917;SDS011;9084;50.956;3.106;2023-05-25T12:20:10;4.70;;;3.17;;
17917;SDS011;9084;50.956;3.106;2023-05-25T12:22:37;5.65;;;3.25;;
17917;SDS011;9084;50.956;3.106;2023-05-25T12:25:07;4.50;;;2.92;;
17917;SDS011;9084;50.956;3.106;2023-05-25T12:27:34;6.93;;;3.33;;
17917;SDS011;9084;50.956;3.106;2023-05-25T12:30:01;3.20;;;2.75;;
17917;SDS011;9084;50.956;3.106;2023-05-25T12:32:28;3.78;;;2.90;;
17917;SDS011;9084;50.956;3.106;2023-05-25T12:35:05;4.32;;;2.53;;
17917;SDS011;9084;50.956;3.106;2023-05-25T12:37:34;3.45;;;2.83;;
17917;SDS011;9084;50.956;3.106;2023-05-25T12:40:00;3.22;;;2.67;;
17917;SDS011;9084;50.956;3.106;2023-05-25T12:42:40;4.43;;;3.30;;
17917;SDS011;9084;50.956;3.106;2023-05-25T12:45:05;5.70;;;3.28;;
17917;SDS011;9084;50.956;3.106;2023-05-25T12:47:34;3.10;;;2.83;;
17917;SDS011;9084;50.956;3.106;2023-05-25T12:50:12;6.55;;;3.53;;
17917;SDS011;9084;50.956;3.106;2023-05-25T12:52:42;4.97;;;3.38;;
17917;SDS011;9084;50.956;3.106;2023-05-25T12:55:19;3.25;;;2.95;;
17917;SDS011;9084;50.956;3.106;2023-05-25T12:57:59;4.72;;;3.22;;
17917;SDS011;9084;50.956;3.106;2023-05-25T13:00:29;6.35;;;3.30;;
17917;SDS011;9084;50.956;3.106;2023-05-25T13:02:58;4.72;;;3.38;;
17917;SDS011;9084;50.956;3.106;2023-05-25T13:05:24;5.50;;;3.45;;
17917;SDS011;9084;50.956;3.106;2023-05-25T13:07:54;7.00;;;3.30;;
17917;SDS011;9084;50.956;3.106;2023-05-25T13:10:21;4.30;;;2.78;;
17917;SDS011;9084;50.956;3.106;2023-05-25T13:12:50;4.55;;;2.70;;
17917;SDS011;9084;50.956;3.106;2023-05-25T13:15:19;4.95;;;2.78;;
17917;SDS011;9084;50.956;3.106;2023-05-25T13:17:49;4.38;;;2.90;;
17917;SDS011;9084;50.956;3.106;2023-05-25T13:20:18;5.07;;;2.80;;
17917;SDS011;9084;50.956;3.106;2023-05-25T13:22:48;4.22;;;3.08;;
17917;SDS011;9084;50.956;3.106;2023-05-25T13:25:14;5.90;;;3.50;;
17917;SDS011;9084;50.956;3.106;2023-05-25T13:27:46;6.63;;;4.57;;
17917;SDS011;9084;50.956;3.106;2023-05-25T13:30:13;7.07;;;4.82;;
17917;SDS011;9084;50.956;3.106;2023-05-25T13:32:39;7.78;;;4.40;;
17917;SDS011;9084;50.956;3.106;2023-05-25T13:35:11;5.90;;;4.53;;
17917;SDS011;9084;50.956;3.106;2023-05-25T13:37:43;6.65;;;4.72;;
17917;SDS011;9084;50.956;3.106;2023-05-25T13:40:09;7.07;;;5.18;;
17917;SDS011;9084;50.956;3.106;2023-05-25T13:42:37;6.93;;;4.47;;
17917;SDS011;9084;50.956;3.106;2023-05-25T13:45:03;7.57;;;4.53;;
17917;SDS011;9084;50.956;3.106;2023-05-25T13:47:30;7.60;;;5.18;;
17917;SDS011;9084;50.956;3.106;2023-05-25T13:49:55;8.48;;;4.97;;
17917;SDS011;9084;50.956;3.106;2023-05-25T13:52:23;6.97;;;4.72;;
17917;SDS011;9084;50.956;3.106;2023-05-25T13:54:48;7.10;;;4.90;;
17917;SDS011;9084;50.956;3.106;2023-05-25T13:57:14;7.95;;;4.53;;
17917;SDS011;9084;50.956;3.106;2023-05-25T13:59:40;8.20;;;4.95;;
17917;SDS011;9084;50.956;3.106;2023-05-25T14:02:10;7.57;;;4.72;;
17917;SDS011;9084;50.956;3.106;2023-05-25T14:04:38;9.90;;;5.43;;
17917;SDS011;9084;50.956;3.106;2023-05-25T14:07:04;6.32;;;4.63;;
17917;SDS011;9084;50.956;3.106;2023-05-25T14:09:31;5.60;;;4.80;;
17917;SDS011;9084;50.956;3.106;2023-05-25T14:11:57;6.85;;;4.90;;
17917;SDS011;9084;50.956;3.106;2023-05-25T14:14:23;6.60;;;4.80;;
17917;SDS011;9084;50.956;3.106;2023-05-25T14:16:51;8.82;;;5.22;;
17917;SDS011;9084;50.956;3.106;2023-05-25T14:19:16;8.65;;;5.57;;
17917;SDS011;9084;50.956;3.106;2023-05-25T14:21:42;10.02;;;5.63;;
17917;SDS011;9084;50.956;3.106;2023-05-25T14:24:10;8.73;;;5.20;;
17917;SDS011;9084;50.956;3.106;2023-05-25T14:26:38;8.90;;;5.40;;
17917;SDS011;9084;50.956;3.106;2023-05-25T14:29:06;7.72;;;4.90;;
17917;SDS011;9084;50.956;3.106;2023-05-25T14:31:32;7.63;;;5.47;;
17917;SDS011;9084;50.956;3.106;2023-05-25T14:33:57;8.38;;;5.15;;
17917;SDS011;9084;50.956;3.106;2023-05-25T14:36:25;6.55;;;5.53;;
17917;SDS011;9084;50.956;3.106;2023-05-25T14:38:53;11.35;;;5.65;;
17917;SDS011;9084;50.956;3.106;2023-05-25T14:41:19;7.47;;;4.57;;
17917;SDS011;9084;50.956;3.106;2023-05-25T14:43:46;8.50;;;5.45;;
17917;SDS011;9084;50.956;3.106;2023-05-25T14:46:12;7.43;;;5.13;;
17917;SDS011;9084;50.956;3.106;2023-05-25T14:48:38;5.97;;;5.30;;
17917;SDS011;9084;50.956;3.106;2023-05-25T14:51:03;9.45;;;5.20;;
17917;SDS011;9084;50.956;3.106;2023-05-25T14:53:31;9.65;;;5.50;;
17917;SDS011;9084;50.956;3.106;2023-05-25T14:55:57;8.07;;;5.95;;
17917;SDS011;9084;50.956;3.106;2023-05-25T14:58:23;6.88;;;5.40;;
17917;SDS011;9084;50.956;3.106;2023-05-25T15:00:51;9.57;;;5.80;;
17917;SDS011;9084;50.956;3.106;2023-05-25T15:03:16;8.50;;;5.30;;
17917;SDS011;9084;50.956;3.106;2023-05-25T15:05:42;6.20;;;4.30;;
17917;SDS011;9084;50.956;3.106;2023-05-25T15:08:08;5.82;;;4.82;;
17917;SDS011;9084;50.956;3.106;2023-05-25T15:10:34;9.90;;;5.78;;
17917;SDS011;9084;50.956;3.106;2023-05-25T15:13:00;10.48;;;5.20;;
17917;SDS011;9084;50.956;3.106;2023-05-25T15:15:25;8.27;;;4.75;;
17917;SDS011;9084;50.956;3.106;2023-05-25T15:17:51;8.52;;;4.90;;
17917;SDS011;9084;50.956;3.106;2023-05-25T15:20:17;5.90;;;4.85;;
17917;SDS011;9084;50.956;3.106;2023-05-25T15:22:44;7.20;;;4.47;;
17917;SDS011;9084;50.956;3.106;2023-05-25T15:25:10;8.25;;;5.07;;
17917;SDS011;9084;50.956;3.106;2023-05-25T15:27:36;8.93;;;5.20;;
17917;SDS011;9084;50.956;3.106;2023-05-25T15:30:01;10.73;;;5.07;;
17917;SDS011;9084;50.956;3.106;2023-05-25T15:32:30;10.52;;;4.90;;
17917;SDS011;9084;50.956;3.106;2023-05-25T15:34:56;9.63;;;5.65;;